Time;durP1;ratioP1;P1;durP2;ratioP2;P2;SDS_P1;SDS_P2;PMS_P1;PMS_P2;Temp;Humidity;BMP_temperature;BMP_pressure;BME280_temperature;BME280_humidity;BME280_pressure;Samples;Min_cycle;Max_cycle;Signal;HPM_P1;HPM_P2
2022/02/20 00:01:59;;;;;;;8.30;7.77;;;8.60;99.90;;;;;;5010993;28;20194;-66
2022/02/20 00:04:24;;;;;;;14.73;7.03;;;8.60;99.90;;;;;;5011730;28;20168;-66
2022/02/20 00:06:50;;;;;;;7.83;7.03;;;8.60;99.90;;;;;;5027578;28;20637;-66
2022/02/20 00:09:16;;;;;;;20.20;8.20;;;8.60;99.90;;;;;;5012115;28;20295;-66
2022/02/20 00:11:41;;;;;;;11.00;9.00;;;8.50;99.90;;;;;;5026654;28;20200;-67
2022/02/20 00:14:07;;;;;;;9.63;8.63;;;8.50;99.90;;;;;;5031499;28;20278;-67
2022/02/20 00:16:32;;;;;;;14.47;8.87;;;8.40;99.90;;;;;;5029626;28;20179;-67
2022/02/20 00:18:58;;;;;;;8.17;7.57;;;8.40;99.90;;;;;;5030377;28;20615;-67
2022/02/20 00:21:24;;;;;;;8.30;7.50;;;8.30;99.90;;;;;;5019923;28;20239;-67
2022/02/20 00:23:49;;;;;;;9.37;8.50;;;8.20;99.90;;;;;;5011370;28;20176;-67
2022/02/20 00:26:15;;;;;;;8.33;7.47;;;8.10;99.90;;;;;;5021258;28;20271;-67
2022/02/20 00:28:40;;;;;;;14.37;13.43;;;8.00;99.90;;;;;;5031175;28;20245;-67
2022/02/20 00:31:06;;;;;;;7.20;6.70;;;8.00;99.90;;;;;;5023546;28;20184;-67
2022/02/20 00:33:32;;;;;;;8.47;7.93;;;7.90;99.90;;;;;;5010238;28;20577;-67
2022/02/20 00:35:58;;;;;;;7.03;6.43;;;7.90;99.90;;;;;;5017285;28;20183;-67
2022/02/20 00:38:23;;;;;;;7.00;6.43;;;7.80;99.90;;;;;;5030035;28;20187;-67
2022/02/20 00:40:49;;;;;;;7.63;7.03;;;7.80;99.90;;;;;;5027376;28;20191;-67
2022/02/20 00:43:16;;;;;;;6.67;6.13;;;7.70;99.90;;;;;;5012455;28;20164;-67
2022/02/20 00:45:42;;;;;;;6.73;6.23;;;7.70;99.90;;;;;;5031373;28;20259;-67
2022/02/20 00:48:07;;;;;;;7.67;6.73;;;7.60;99.90;;;;;;5031253;28;20671;-67
2022/02/20 00:50:33;;;;;;;8.93;8.30;;;7.50;99.90;;;;;;5011622;28;20176;-68
2022/02/20 00:53:00;;;;;;;7.83;7.33;;;7.50;99.90;;;;;;5011280;28;20214;-67
2022/02/20 00:55:26;;;;;;;8.17;7.43;;;7.40;99.90;;;;;;5029105;28;20171;-67
2022/02/20 00:57:53;;;;;;;8.63;8.07;;;7.30;99.90;;;;;;5018960;28;20176;-67
2022/02/20 01:00:18;;;;;;;8.77;8.00;;;7.20;99.90;;;;;;5030256;28;20269;-67
2022/02/20 01:02:44;;;;;;;8.37;7.80;;;7.20;99.90;;;;;;5017443;28;20340;-67
2022/02/20 01:05:11;;;;;;;8.07;7.37;;;7.10;99.90;;;;;;5011571;28;20638;-67
2022/02/20 01:07:37;;;;;;;9.20;8.33;;;7.10;99.90;;;;;;5021378;28;20211;-67
2022/02/20 01:10:04;;;;;;;8.47;7.87;;;7.00;99.90;;;;;;5031223;28;20711;-67
2022/02/20 01:12:30;;;;;;;13.43;8.83;;;7.00;99.90;;;;;;5029075;28;20203;-67
2022/02/20 01:14:56;;;;;;;11.00;10.50;;;6.90;99.90;;;;;;5031239;28;20172;-67
2022/02/20 01:17:21;;;;;;;9.10;8.50;;;6.90;99.90;;;;;;5018957;28;20200;-67
2022/02/20 01:19:48;;;;;;;10.07;9.10;;;6.80;99.90;;;;;;5011124;28;20289;-67
2022/02/20 01:22:13;;;;;;;9.37;8.77;;;6.80;99.90;;;;;;5018936;28;20202;-67
2022/02/20 01:24:39;;;;;;;11.60;8.40;;;6.70;99.90;;;;;;5030850;28;20171;-67
2022/02/20 01:27:05;;;;;;;8.97;7.97;;;6.70;99.90;;;;;;5025654;28;20180;-67
2022/02/20 01:29:31;;;;;;;9.50;8.70;;;6.70;99.90;;;;;;5015023;28;20203;-67
2022/02/20 01:31:56;;;;;;;10.20;9.30;;;6.70;99.90;;;;;;5029838;28;20220;-67
2022/02/20 01:34:22;;;;;;;8.60;7.90;;;6.70;99.90;;;;;;5034494;28;20164;-67
2022/02/20 01:36:48;;;;;;;11.47;8.80;;;6.80;99.90;;;;;;5021525;28;20520;-67
2022/02/20 01:39:14;;;;;;;9.93;9.30;;;6.80;99.90;;;;;;5033421;28;20203;-67
2022/02/20 01:41:39;;;;;;;9.97;9.23;;;6.80;99.90;;;;;;5034513;28;20176;-67
2022/02/20 01:44:06;;;;;;;9.27;8.87;;;6.80;99.90;;;;;;5032952;28;20206;-67
2022/02/20 01:46:32;;;;;;;9.20;8.50;;;6.80;99.90;;;;;;5032348;28;20171;-67
2022/02/20 01:48:58;;;;;;;13.63;10.50;;;6.70;99.90;;;;;;5034791;28;20225;-67
2022/02/20 01:51:24;;;;;;;8.93;8.33;;;6.60;99.90;;;;;;5024804;28;20632;-67
2022/02/20 01:53:50;;;;;;;8.77;8.27;;;6.50;99.90;;;;;;5012753;28;20179;-67
2022/02/20 01:56:16;;;;;;;8.07;7.57;;;6.40;99.90;;;;;;5020492;28;20187;-67
2022/02/20 01:58:42;;;;;;;8.53;7.77;;;6.40;99.90;;;;;;5033904;28;20325;-67
2022/02/20 02:01:08;;;;;;;7.57;7.07;;;6.30;99.90;;;;;;5028118;28;20176;-67
2022/02/20 02:03:37;;;;;;;9.90;9.00;;;6.20;99.90;;;;;;5012704;28;20182;-67
2022/02/20 02:06:04;;;;;;;9.50;8.77;;;6.10;99.90;;;;;;5027603;28;20176;-67
2022/02/20 02:08:29;;;;;;;9.70;8.77;;;6.00;99.90;;;;;;5033947;28;20608;-67
2022/02/20 02:10:55;;;;;;;9.10;8.30;;;6.00;99.90;;;;;;5030789;28;20215;-67
2022/02/20 02:13:21;;;;;;;9.77;8.67;;;5.90;99.90;;;;;;5033501;28;20195;-67
2022/02/20 02:15:51;;;;;;;11.87;10.40;;;5.80;99.90;;;;;;5022831;28;20184;-67
2022/02/20 02:18:17;;;;;;;9.47;8.63;;;5.80;99.90;;;;;;5013992;28;20189;-66
2022/02/20 02:20:43;;;;;;;9.07;7.90;;;5.70;99.90;;;;;;5023175;28;20179;-67
2022/02/20 02:23:09;;;;;;;10.33;9.40;;;5.60;99.90;;;;;;5032388;28;20186;-67
2022/02/20 02:25:38;;;;;;;8.23;7.70;;;5.50;99.90;;;;;;5025327;28;20534;-67
2022/02/20 02:28:04;;;;;;;8.93;8.13;;;5.50;99.90;;;;;;5012460;28;20569;-67
2022/02/20 02:30:29;;;;;;;9.87;9.03;;;5.40;99.90;;;;;;5014721;28;20209;-66
2022/02/20 02:32:55;;;;;;;9.13;8.57;;;5.40;99.90;;;;;;5011866;28;20215;-67
2022/02/20 02:35:20;;;;;;;10.33;9.63;;;5.30;99.90;;;;;;5016910;28;20179;-66
2022/02/20 02:37:46;;;;;;;9.63;8.77;;;5.30;99.90;;;;;;5032295;28;20254;-67
2022/02/20 02:40:12;;;;;;;11.10;9.90;;;5.20;99.90;;;;;;5030373;28;20175;-67
2022/02/20 02:42:38;;;;;;;9.90;9.00;;;5.20;99.90;;;;;;5013209;28;20196;-67
2022/02/20 02:45:04;;;;;;;10.80;8.87;;;5.10;99.90;;;;;;5013092;28;20172;-66
2022/02/20 02:47:30;;;;;;;10.97;10.07;;;5.00;99.90;;;;;;5033113;28;20171;-67
2022/02/20 02:49:56;;;;;;;10.87;9.80;;;5.00;99.90;;;;;;5033240;28;20206;-67
2022/02/20 02:52:22;;;;;;;11.13;10.03;;;5.00;99.90;;;;;;5012237;28;20200;-67
2022/02/20 02:54:48;;;;;;;10.73;9.67;;;5.00;99.90;;;;;;5015409;28;20663;-67
2022/02/20 02:57:14;;;;;;;10.07;9.10;;;4.90;99.90;;;;;;5027981;28;20227;-67
2022/02/20 02:59:40;;;;;;;8.90;8.27;;;4.80;99.90;;;;;;5013556;28;20227;-67
2022/02/20 03:02:07;;;;;;;10.57;9.50;;;4.80;99.90;;;;;;5032561;28;20211;-67
2022/02/20 03:04:33;;;;;;;10.23;9.37;;;4.80;99.90;;;;;;5031095;28;20667;-67
2022/02/20 03:06:59;;;;;;;10.47;9.50;;;4.80;99.90;;;;;;5013164;28;20188;-67
2022/02/20 03:09:26;;;;;;;11.27;9.80;;;4.80;99.90;;;;;;5012959;28;20291;-67
2022/02/20 03:11:52;;;;;;;10.47;9.63;;;4.80;99.90;;;;;;5022886;28;20298;-67
2022/02/20 03:14:18;;;;;;;9.00;8.50;;;4.70;99.90;;;;;;5012787;28;20215;-67
2022/02/20 03:16:44;;;;;;;13.27;10.67;;;4.70;99.90;;;;;;5029410;28;20581;-67
2022/02/20 03:19:09;;;;;;;11.97;10.73;;;4.70;99.90;;;;;;5032701;28;20319;-67
2022/02/20 03:21:35;;;;;;;11.27;10.37;;;4.70;99.90;;;;;;5017296;28;20188;-67
2022/02/20 03:24:01;;;;;;;11.47;10.27;;;4.60;99.90;;;;;;5012516;28;20176;-67
2022/02/20 03:26:27;;;;;;;10.60;9.67;;;4.60;99.90;;;;;;5014021;28;20201;-66
2022/02/20 03:28:52;;;;;;;13.67;11.40;;;4.60;99.90;;;;;;5012418;28;20206;-66
2022/02/20 03:31:18;;;;;;;11.97;10.67;;;4.60;99.90;;;;;;5026565;28;20187;-66
2022/02/20 03:33:44;;;;;;;13.00;11.57;;;4.50;99.90;;;;;;5031930;28;20175;-66
2022/02/20 03:36:09;;;;;;;12.57;11.57;;;4.50;99.90;;;;;;5020048;28;20192;-66
2022/02/20 03:38:35;;;;;;;11.70;10.47;;;4.50;99.90;;;;;;5011122;28;20204;-66
2022/02/20 03:41:02;;;;;;;12.37;11.13;;;4.40;99.90;;;;;;5021408;28;20660;-66
2022/02/20 03:43:28;;;;;;;13.37;11.13;;;4.40;99.90;;;;;;5032263;28;20660;-66
2022/02/20 03:45:53;;;;;;;11.87;10.80;;;4.40;99.90;;;;;;5021852;28;20184;-66
2022/02/20 03:48:19;;;;;;;11.73;10.57;;;4.40;99.90;;;;;;5010876;28;20204;-66
2022/02/20 03:50:45;;;;;;;12.67;10.00;;;4.30;99.90;;;;;;5017408;28;20549;-66
2022/02/20 03:53:10;;;;;;;11.60;10.50;;;4.30;99.90;;;;;;5030570;28;20215;-66
2022/02/20 03:55:36;;;;;;;14.47;10.60;;;4.30;99.90;;;;;;5027012;28;20188;-66
2022/02/20 03:58:01;;;;;;;11.77;10.70;;;4.20;99.90;;;;;;5011039;28;20661;-66
2022/02/20 04:00:27;;;;;;;14.60;11.90;;;4.10;99.90;;;;;;5013284;28;20179;-67
2022/02/20 04:02:53;;;;;;;15.63;11.20;;;4.10;99.90;;;;;;5010704;28;20245;-67
2022/02/20 04:05:20;;;;;;;12.90;10.73;;;4.00;99.90;;;;;;5013228;28;20188;-67
2022/02/20 04:07:47;;;;;;;12.80;11.50;;;4.00;99.90;;;;;;5030295;28;20183;-67
2022/02/20 04:10:14;;;;;;;12.30;10.53;;;3.90;99.90;;;;;;5030914;28;20187;-67
2022/02/20 04:12:40;;;;;;;15.00;11.67;;;3.80;99.90;;;;;;5026691;28;20212;-66
2022/02/20 04:15:07;;;;;;;12.97;11.67;;;3.80;99.90;;;;;;5012111;28;20173;-67
2022/02/20 04:17:44;;;;;;;14.53;11.83;;;3.80;99.90;;;;;;5029980;28;20649;-66
2022/02/20 04:20:15;;;;;;;15.63;12.13;;;3.70;99.90;;;;;;5030737;28;20667;-67
2022/02/20 04:22:41;;;;;;;14.00;11.47;;;3.70;99.90;;;;;;5012765;28;20626;-67
2022/02/20 04:25:09;;;;;;;15.27;11.00;;;3.70;99.90;;;;;;5012058;28;20553;-67
2022/02/20 04:27:35;;;;;;;14.47;12.07;;;3.60;99.90;;;;;;5011710;28;20729;-66
2022/02/20 04:30:01;;;;;;;12.83;11.73;;;3.50;99.90;;;;;;5011793;28;20204;-67
2022/02/20 04:32:27;;;;;;;14.07;12.40;;;3.60;99.90;;;;;;5025394;28;20290;-66
2022/02/20 04:34:53;;;;;;;18.03;12.70;;;3.50;99.90;;;;;;5030424;28;20610;-67
2022/02/20 04:37:18;;;;;;;12.70;11.40;;;3.50;99.90;;;;;;5017224;28;20214;-67
2022/02/20 04:39:44;;;;;;;13.13;12.03;;;3.50;99.90;;;;;;5031693;28;20282;-67
2022/02/20 04:42:09;;;;;;;15.33;11.53;;;3.50;99.90;;;;;;5019730;28;20192;-66
2022/02/20 04:44:35;;;;;;;12.90;11.37;;;3.50;99.90;;;;;;5011660;28;20234;-67
2022/02/20 04:47:01;;;;;;;17.73;11.17;;;3.50;99.90;;;;;;5021066;28;20262;-67
2022/02/20 04:49:26;;;;;;;14.10;11.60;;;3.50;99.90;;;;;;5032576;28;20660;-66
2022/02/20 04:51:52;;;;;;;15.13;11.30;;;3.50;99.90;;;;;;5024432;28;20633;-67
2022/02/20 04:54:17;;;;;;;13.43;12.23;;;3.50;99.90;;;;;;5015801;28;20178;-67
2022/02/20 04:56:43;;;;;;;16.43;14.93;;;3.60;99.90;;;;;;5028795;28;20179;-66
2022/02/20 04:59:13;;;;;;;13.63;12.07;;;3.60;99.90;;;;;;5011528;28;20560;-67
2022/02/20 05:01:39;;;;;;;16.87;12.53;;;3.70;99.90;;;;;;5012979;28;20195;-67
2022/02/20 05:04:06;;;;;;;17.63;12.13;;;3.80;99.90;;;;;;5033560;28;20710;-67
2022/02/20 05:06:31;;;;;;;13.97;12.57;;;3.80;99.90;;;;;;5034005;28;20219;-66
2022/02/20 05:08:57;;;;;;;13.73;12.03;;;3.80;99.90;;;;;;5015431;28;20609;-66
2022/02/20 05:11:24;;;;;;;14.03;11.70;;;3.90;99.90;;;;;;5031151;28;20226;-66
2022/02/20 05:13:51;;;;;;;13.77;11.60;;;4.00;99.90;;;;;;5034767;28;20645;-67
2022/02/20 05:16:20;;;;;;;14.97;12.40;;;4.10;99.90;;;;;;5019016;28;20233;-67
2022/02/20 05:18:45;;;;;;;12.40;11.20;;;4.10;99.90;;;;;;5013736;28;20257;-66
2022/02/20 05:21:11;;;;;;;12.20;11.20;;;4.20;99.90;;;;;;5027256;28;20180;-67
2022/02/20 05:23:36;;;;;;;13.57;11.03;;;4.30;99.90;;;;;;5034747;28;20594;-66
2022/02/20 05:26:02;;;;;;;12.13;11.07;;;4.30;99.90;;;;;;5023251;28;20188;-66
2022/02/20 05:28:28;;;;;;;15.10;11.17;;;4.40;99.90;;;;;;5013979;28;20203;-66
2022/02/20 05:30:53;;;;;;;14.63;11.13;;;4.40;99.90;;;;;;5023577;28;20270;-66
2022/02/20 05:33:19;;;;;;;12.17;10.40;;;4.50;99.90;;;;;;5032599;28;20306;-66
2022/02/20 05:35:45;;;;;;;12.13;10.13;;;4.50;99.90;;;;;;5025139;28;20745;-66
2022/02/20 05:38:11;;;;;;;10.80;9.70;;;4.50;99.90;;;;;;5015063;28;20575;-66
2022/02/20 05:40:38;;;;;;;11.67;9.90;;;4.60;99.90;;;;;;5020913;28;20179;-66
2022/02/20 05:43:07;;;;;;;11.13;10.00;;;4.60;99.90;;;;;;5034519;28;20178;-67
2022/02/20 05:45:32;;;;;;;13.37;10.40;;;4.70;99.90;;;;;;5033105;28;20218;-67
2022/02/20 05:47:58;;;;;;;10.80;9.87;;;4.70;99.90;;;;;;5034683;28;20179;-66
2022/02/20 05:50:24;;;;;;;11.20;10.13;;;4.80;99.90;;;;;;5029505;28;20188;-66
2022/02/20 05:52:49;;;;;;;12.50;9.77;;;4.90;99.90;;;;;;5013023;28;20285;-66
2022/02/20 05:55:15;;;;;;;10.23;9.20;;;4.90;99.90;;;;;;5015269;28;20180;-67
2022/02/20 05:57:53;;;;;;;12.20;9.63;;;4.90;99.90;;;;;;5033170;28;20229;-67
2022/02/20 06:00:24;;;;;;;12.50;10.30;;;4.90;99.90;;;;;;5030998;28;20175;-67
2022/02/20 06:02:49;;;;;;;17.10;10.63;;;4.90;99.90;;;;;;5013920;28;20184;-67
2022/02/20 06:05:15;;;;;;;10.37;9.53;;;4.90;99.90;;;;;;5013950;28;20195;-67
2022/02/20 06:07:41;;;;;;;13.73;10.00;;;4.90;99.90;;;;;;5033065;28;20233;-67
2022/02/20 06:10:08;;;;;;;10.73;9.83;;;5.00;99.90;;;;;;5034061;28;20207;-67
2022/02/20 06:12:35;;;;;;;10.17;9.20;;;5.00;99.90;;;;;;5012485;28;20208;-67
2022/02/20 06:15:01;;;;;;;9.67;8.67;;;5.00;99.90;;;;;;5030446;28;20792;-67
2022/02/20 06:17:26;;;;;;;11.60;9.80;;;5.00;99.90;;;;;;5034042;28;20537;-67
2022/02/20 06:19:52;;;;;;;12.30;9.30;;;5.00;99.90;;;;;;5017558;28;20208;-67
2022/02/20 06:22:18;;;;;;;9.53;8.60;;;5.10;99.90;;;;;;5012433;28;20645;-67
2022/02/20 06:24:43;;;;;;;10.47;9.47;;;5.10;99.90;;;;;;5025334;28;20282;-67
2022/02/20 06:27:09;;;;;;;10.70;9.23;;;5.10;99.90;;;;;;5033662;28;20187;-68
2022/02/20 06:29:35;;;;;;;9.63;8.70;;;5.10;99.90;;;;;;5020639;28;20814;-69
2022/02/20 06:32:02;;;;;;;9.77;8.73;;;5.00;99.90;;;;;;5013856;28;20722;-67
2022/02/20 06:34:28;;;;;;;18.83;9.20;;;5.10;99.90;;;;;;5022518;28;20275;-67
2022/02/20 06:36:54;;;;;;;14.20;9.20;;;5.10;99.90;;;;;;5032485;28;20326;-67
2022/02/20 06:39:20;;;;;;;12.83;9.30;;;5.10;99.90;;;;;;5030641;28;20246;-68
2022/02/20 06:41:45;;;;;;;9.70;8.73;;;5.20;99.90;;;;;;5034071;28;20184;-68
2022/02/20 06:44:11;;;;;;;11.87;8.77;;;5.30;99.90;;;;;;5026529;28;20194;-67
2022/02/20 06:46:37;;;;;;;16.63;8.13;;;5.40;99.90;;;;;;5013921;28;20180;-67
2022/02/20 06:49:06;;;;;;;12.90;8.03;;;5.60;99.90;;;;;;5017886;28;20218;-65
2022/02/20 06:51:31;;;;;;;12.37;8.07;;;5.90;99.90;;;;;;5034056;28;20207;-67
2022/02/20 06:53:57;;;;;;;12.63;7.33;;;6.20;99.90;;;;;;5029712;28;20670;-67
2022/02/20 06:56:22;;;;;;;13.90;8.30;;;6.50;99.90;;;;;;5014589;28;20222;-67
2022/02/20 06:58:48;;;;;;;16.93;9.07;;;6.70;99.90;;;;;;5030888;28;20199;-67
2022/02/20 07:01:14;;;;;;;21.37;9.23;;;6.90;99.90;;;;;;5034025;28;20171;-66
2022/02/20 07:03:40;;;;;;;22.83;9.13;;;7.00;99.90;;;;;;5016125;28;20184;-66
2022/02/20 07:06:05;;;;;;;15.30;12.93;;;7.10;99.90;;;;;;5014040;28;20172;-66
2022/02/20 07:08:34;;;;;;;10.73;8.77;;;7.20;99.90;;;;;;5013170;28;20208;-65
2022/02/20 07:11:00;;;;;;;16.23;8.27;;;7.30;99.90;;;;;;5012975;28;20172;-66
2022/02/20 07:13:25;;;;;;;17.90;8.40;;;7.30;99.90;;;;;;5028209;28;20284;-65
2022/02/20 07:15:51;;;;;;;10.83;7.77;;;7.40;99.90;;;;;;5032541;28;20239;-66
2022/02/20 07:18:16;;;;;;;11.83;7.40;;;7.40;99.90;;;;;;5018305;28;20608;-65
2022/02/20 07:20:42;;;;;;;14.63;8.67;;;7.40;99.90;;;;;;5012778;28;20200;-66
2022/02/20 07:23:11;;;;;;;13.87;8.07;;;7.50;99.90;;;;;;5024436;28;20203;-66
2022/02/20 07:25:37;;;;;;;13.93;8.27;;;7.50;99.90;;;;;;5031008;28;20568;-66
2022/02/20 07:28:03;;;;;;;13.20;7.77;;;7.50;99.90;;;;;;5021495;28;20184;-66
2022/02/20 07:30:28;;;;;;;9.57;7.10;;;7.60;99.90;;;;;;5012898;28;20179;-67
2022/02/20 07:33:00;;;;;;;16.23;7.70;;;7.60;99.90;;;;;;5013384;28;20207;-67
2022/02/20 07:35:26;;;;;;;12.63;8.50;;;7.70;99.90;;;;;;5016545;28;20207;-66
2022/02/20 07:37:52;;;;;;;13.10;8.10;;;7.70;99.90;;;;;;5021960;28;20238;-66
2022/02/20 07:40:18;;;;;;;7.63;6.87;;;7.70;99.90;;;;;;5021231;28;20199;-66
2022/02/20 07:42:45;;;;;;;10.20;7.30;;;7.70;99.90;;;;;;5031733;28;20179;-67
2022/02/20 07:45:10;;;;;;;12.67;7.40;;;7.80;99.90;;;;;;5018473;28;20176;-66
2022/02/20 07:47:59;;;;;;;13.70;7.20;;;7.80;99.90;;;;;;5011266;28;20182;-67
2022/02/20 07:50:31;;;;;;;8.00;7.20;;;7.80;99.90;;;;;;5012644;28;20188;-67
2022/02/20 07:52:57;;;;;;;14.17;7.07;;;7.90;99.90;;;;;;5012119;28;20324;-67
2022/02/20 07:55:24;;;;;;;8.80;7.03;;;7.90;99.90;;;;;;5019570;28;20577;-67
2022/02/20 07:57:51;;;;;;;7.60;6.97;;;7.90;99.90;;;;;;5032022;28;20164;-67
2022/02/20 08:00:22;;;;;;;7.83;6.70;;;7.90;99.90;;;;;;5027204;28;20541;-67
2022/02/20 08:02:50;;;;;;;9.03;7.20;;;7.90;99.90;;;;;;5020209;28;20657;-67
2022/02/20 08:05:16;;;;;;;11.50;9.70;;;8.00;99.90;;;;;;5013509;28;20593;-66
2022/02/20 08:07:41;;;;;;;10.40;7.50;;;8.00;99.90;;;;;;5031942;28;20182;-67
2022/02/20 08:10:07;;;;;;;11.63;9.20;;;8.00;99.90;;;;;;5015575;28;20262;-67
2022/02/20 08:12:33;;;;;;;9.40;8.27;;;8.10;99.90;;;;;;5016190;28;20272;-67
2022/02/20 08:14:59;;;;;;;10.03;7.87;;;8.10;99.90;;;;;;5017330;28;20206;-67
2022/02/20 08:17:25;;;;;;;8.27;7.67;;;8.10;99.90;;;;;;5025712;28;20180;-67
2022/02/20 08:19:51;;;;;;;9.10;7.83;;;8.10;99.90;;;;;;5012963;28;20200;-67
2022/02/20 08:22:17;;;;;;;8.63;7.97;;;8.20;99.90;;;;;;5013351;28;20699;-67
2022/02/20 08:24:44;;;;;;;9.60;8.67;;;8.20;99.90;;;;;;5031198;28;20171;-67
2022/02/20 08:27:11;;;;;;;9.00;8.20;;;8.20;99.90;;;;;;5019264;28;20221;-67
2022/02/20 08:29:37;;;;;;;8.30;7.63;;;8.30;99.90;;;;;;5025524;28;20203;-68
2022/02/20 08:32:03;;;;;;;9.17;8.47;;;8.30;99.90;;;;;;5029433;28;20604;-66
2022/02/20 08:34:29;;;;;;;7.90;7.10;;;8.40;99.90;;;;;;5025212;28;20188;-66
2022/02/20 08:36:55;;;;;;;8.33;7.83;;;8.40;99.90;;;;;;5017027;28;20544;-67
2022/02/20 08:39:21;;;;;;;8.70;8.17;;;8.40;99.90;;;;;;5016709;28;20195;-67
2022/02/20 08:41:46;;;;;;;8.90;8.03;;;8.50;99.90;;;;;;5014713;28;20176;-67
2022/02/20 08:44:12;;;;;;;9.20;8.50;;;8.50;99.90;;;;;;5022975;28;20245;-68
2022/02/20 08:46:38;;;;;;;7.23;6.53;;;8.50;99.90;;;;;;5033345;28;20266;-67
2022/02/20 08:49:03;;;;;;;7.40;6.87;;;8.50;99.90;;;;;;5035106;28;20198;-67
2022/02/20 08:51:29;;;;;;;7.80;7.40;;;8.60;99.90;;;;;;5019200;28;20215;-67
2022/02/20 08:53:55;;;;;;;8.47;7.73;;;8.60;99.90;;;;;;5014036;28;20191;-67
2022/02/20 08:56:22;;;;;;;6.57;6.07;;;8.60;99.90;;;;;;5025958;28;20262;-67
2022/02/20 08:58:48;;;;;;;7.37;6.67;;;8.60;99.90;;;;;;5016825;28;20250;-67
2022/02/20 09:01:13;;;;;;;7.13;6.53;;;8.70;99.90;;;;;;5020086;28;20168;-66
2022/02/20 09:03:39;;;;;;;8.00;7.33;;;8.70;99.90;;;;;;5032632;28;20187;-66
2022/02/20 09:06:05;;;;;;;6.37;6.00;;;8.70;99.90;;;;;;5028017;28;20605;-67
2022/02/20 09:08:31;;;;;;;7.33;6.93;;;8.70;99.90;;;;;;5014922;28;20307;-67
2022/02/20 09:10:56;;;;;;;7.20;6.80;;;8.80;99.90;;;;;;5025461;28;20191;-67
2022/02/20 09:13:22;;;;;;;7.10;6.53;;;8.80;99.90;;;;;;5019446;28;20732;-67
2022/02/20 09:15:47;;;;;;;6.57;6.17;;;8.90;99.90;;;;;;5023702;28;20267;-67
2022/02/20 09:18:13;;;;;;;7.70;6.17;;;8.90;99.90;;;;;;5017483;28;20200;-67
2022/02/20 09:20:39;;;;;;;6.77;6.33;;;9.00;99.90;;;;;;5029035;28;20218;-67
2022/02/20 09:23:04;;;;;;;20.00;18.97;;;9.00;99.90;;;;;;5021718;28;20191;-67
2022/02/20 09:25:30;;;;;;;7.33;6.73;;;9.10;99.90;;;;;;5031360;28;20176;-66
2022/02/20 09:27:55;;;;;;;8.03;5.77;;;9.20;99.90;;;;;;5020524;28;20263;-67
2022/02/20 09:30:21;;;;;;;6.30;5.80;;;9.30;99.90;;;;;;5034505;28;20217;-67
2022/02/20 09:32:47;;;;;;;6.40;6.10;;;9.30;99.90;;;;;;5029374;28;20722;-66
2022/02/20 09:35:13;;;;;;;5.67;5.37;;;9.40;99.90;;;;;;5027229;28;20210;-67
2022/02/20 09:37:39;;;;;;;6.63;6.00;;;9.60;99.90;;;;;;5030768;28;20175;-66
2022/02/20 09:40:06;;;;;;;9.13;8.50;;;9.70;99.90;;;;;;5032679;28;20556;-67
2022/02/20 09:42:31;;;;;;;6.10;5.60;;;9.80;99.90;;;;;;5029084;28;20191;-67
2022/02/20 09:44:57;;;;;;;5.90;5.50;;;9.90;99.90;;;;;;5024481;28;20583;-67
2022/02/20 09:47:25;;;;;;;6.60;6.03;;;9.90;99.90;;;;;;5014204;28;20283;-66
2022/02/20 09:49:55;;;;;;;6.47;6.13;;;9.90;99.90;;;;;;5016671;28;20219;-68
2022/02/20 09:52:21;;;;;;;6.87;6.37;;;9.90;99.90;;;;;;5015158;28;20258;-67
2022/02/20 09:54:47;;;;;;;7.07;6.67;;;9.90;99.90;;;;;;5020491;28;20709;-66
2022/02/20 09:57:12;;;;;;;7.40;6.50;;;9.90;99.90;;;;;;5034002;28;20611;-66
2022/02/20 09:59:39;;;;;;;6.63;6.23;;;9.90;99.90;;;;;;5028789;28;20188;-67
2022/02/20 10:02:05;;;;;;;6.73;6.17;;;9.90;99.90;;;;;;5025048;28;20176;-66
2022/02/20 10:04:42;;;;;;;6.80;6.40;;;10.00;99.90;;;;;;5014225;28;20180;-67
2022/02/20 10:07:26;;;;;;;6.50;5.83;;;10.00;99.90;;;;;;5025027;28;20544;-66
2022/02/20 10:09:53;;;;;;;6.10;5.57;;;10.00;99.90;;;;;;5039098;23;20253;-91
2022/02/20 10:12:25;;;;;;;6.93;6.43;;;10.10;99.90;;;;;;5039852;28;20207;-90
2022/02/20 10:14:50;;;;;;;6.70;6.10;;;10.10;99.90;;;;;;5039317;28;20183;-89
2022/02/20 10:17:19;;;;;;;7.97;6.20;;;10.10;99.90;;;;;;5043249;28;20171;-88
2022/02/20 10:20:00;;;;;;;6.57;6.07;;;10.10;99.90;;;;;;5042544;28;20561;-87
2022/02/20 10:22:38;;;;;;;8.20;6.43;;;10.20;99.90;;;;;;5042073;28;20171;-88
2022/02/20 10:25:11;;;;;;;6.23;5.73;;;10.20;99.90;;;;;;5042067;28;20210;-88
2022/02/20 10:27:50;;;;;;;6.53;5.90;;;10.30;99.90;;;;;;5041708;28;20179;-89
2022/02/20 10:30:22;;;;;;;9.03;5.80;;;10.40;99.90;;;;;;5042379;28;20168;-89
2022/02/20 10:33:10;;;;;;;6.33;5.80;;;10.50;99.90;;;;;;5040894;28;20192;-88
2022/02/20 10:35:38;;;;;;;6.60;6.10;;;10.60;99.90;;;;;;5041439;28;20211;-88
2022/02/20 10:38:13;;;;;;;6.10;5.70;;;10.80;99.90;;;;;;5043019;28;20191;-88
2022/02/20 10:40:40;;;;;;;5.87;5.47;;;10.90;99.90;;;;;;5041202;28;20182;-88
2022/02/20 10:43:08;;;;;;;6.47;5.87;;;11.00;99.90;;;;;;5041195;28;20190;-89
2022/02/20 10:45:40;;;;;;;6.90;6.40;;;11.00;99.90;;;;;;5040855;28;20176;-89
2022/02/20 10:48:17;;;;;;;6.10;5.80;;;10.90;99.90;;;;;;5038068;28;20196;-90
2022/02/20 10:50:43;;;;;;;6.47;6.10;;;10.90;99.90;;;;;;5041317;28;20238;-88
2022/02/20 10:53:19;;;;;;;6.57;6.07;;;10.80;99.90;;;;;;5041696;28;20713;-88
2022/02/20 10:55:47;;;;;;;6.87;6.40;;;10.70;99.90;;;;;;5040714;28;20171;-89
2022/02/20 10:58:14;;;;;;;6.40;5.73;;;10.70;99.90;;;;;;5040577;28;20696;-87
2022/02/20 11:00:47;;;;;;;5.53;5.13;;;10.80;99.90;;;;;;5042933;28;20187;-88
2022/02/20 11:03:13;;;;;;;6.50;6.03;;;10.90;99.90;;;;;;5042929;28;20198;-88
2022/02/20 11:05:40;;;;;;;5.93;5.50;;;10.90;99.90;;;;;;5044293;28;20179;-88
2022/02/20 11:08:07;;;;;;;6.93;6.30;;;11.00;99.90;;;;;;5042808;28;20244;-90
2022/02/20 11:10:34;;;;;;;7.30;6.70;;;11.00;99.90;;;;;;5042555;28;20230;-88
2022/02/20 11:13:01;;;;;;;6.30;5.93;;;11.10;99.90;;;;;;5041114;28;20695;-89
2022/02/20 11:15:29;;;;;;;6.20;5.70;;;11.10;99.90;;;;;;5042577;28;20261;-88
2022/02/20 11:18:03;;;;;;;5.70;5.40;;;11.00;99.90;;;;;;5042655;28;20195;-88
2022/02/20 11:20:30;;;;;;;5.83;5.40;;;11.00;99.90;;;;;;5044892;28;20174;-88
2022/02/20 11:23:00;;;;;;;5.97;5.47;;;11.00;99.90;;;;;;5045100;28;20183;-89
2022/02/20 11:25:27;;;;;;;6.50;5.90;;;10.90;99.90;;;;;;5045386;28;20179;-89
2022/02/20 11:27:56;;;;;;;7.57;6.97;;;10.90;99.90;;;;;;5028690;28;20207;-90
2022/02/20 11:30:22;;;;;;;6.40;6.00;;;10.90;99.90;;;;;;5057694;28;20168;-90
2022/02/20 11:32:48;;;;;;;7.70;7.17;;;10.90;99.90;;;;;;5051660;28;20234;-87
2022/02/20 11:35:15;;;;;;;6.23;5.50;;;10.80;99.90;;;;;;5043267;28;20172;-88
2022/02/20 11:38:25;;;;;;;9.23;6.07;;;10.80;99.90;;;;;;5043338;28;20249;-88
2022/02/20 11:40:56;;;;;;;6.57;5.80;;;10.90;99.90;;;;;;5044732;28;20174;-88
2022/02/20 11:43:37;;;;;;;6.33;5.83;;;10.90;99.90;;;;;;5042504;28;20629;-88
2022/02/20 11:46:16;;;;;;;6.70;6.00;;;10.90;99.90;;;;;;5038797;28;20611;-88
2022/02/20 11:49:07;;;;;;;7.53;6.80;;;10.90;99.90;;;;;;5036438;28;20199;-89
2022/02/20 11:51:33;;;;;;;6.30;5.70;;;11.00;99.90;;;;;;5035014;28;20236;-89
2022/02/20 11:54:36;;;;;;;7.47;6.87;;;11.10;99.90;;;;;;5037643;28;20172;-89
2022/02/20 11:57:28;;;;;;;8.53;6.73;;;11.20;99.90;;;;;;5034542;28;20202;-89
2022/02/20 12:00:07;;;;;;;6.60;6.00;;;11.20;99.90;;;;;;5023356;28;20255;-88
2022/02/20 12:02:34;;;;;;;6.70;6.17;;;11.20;99.90;;;;;;5023320;28;20176;-88
2022/02/20 12:05:00;;;;;;;6.67;6.00;;;11.30;99.90;;;;;;5041118;28;20322;-89
2022/02/20 12:07:36;;;;;;;6.33;5.73;;;11.20;99.90;;;;;;5025074;28;20211;-88
2022/02/20 12:10:24;;;;;;;6.97;6.37;;;11.20;99.90;;;;;;5038609;28;20252;-89
2022/02/20 12:12:55;;;;;;;10.80;6.23;;;11.00;99.90;;;;;;5022915;28;20231;-87
2022/02/20 12:15:38;;;;;;;8.17;7.43;;;10.90;99.90;;;;;;5025352;28;20176;-88
2022/02/20 12:18:13;;;;;;;12.87;8.63;;;10.80;99.90;;;;;;5038142;28;20195;-87
2022/02/20 12:21:08;;;;;;;9.33;8.37;;;10.70;99.90;;;;;;5045138;28;20175;-87
2022/02/20 12:23:48;;;;;;;9.93;7.87;;;10.60;99.90;;;;;;5045207;28;20183;-90
2022/02/20 12:26:46;;;;;;;11.57;7.67;;;10.60;99.90;;;;;;5044940;28;20194;-88
2022/02/20 12:29:15;;;;;;;10.57;7.27;;;10.60;99.90;;;;;;5043681;28;20203;-89
2022/02/20 12:32:00;;;;;;;9.30;6.53;;;10.60;99.90;;;;;;5044231;28;20655;-88
2022/02/20 12:34:49;;;;;;;9.53;7.27;;;10.50;99.90;;;;;;5044264;28;20559;-88
2022/02/20 12:37:21;;;;;;;8.17;6.90;;;10.50;99.90;;;;;;5044634;28;20179;-87
2022/02/20 12:40:11;;;;;;;8.10;6.80;;;10.50;99.90;;;;;;5044462;28;20191;-88
2022/02/20 12:42:48;;;;;;;9.97;6.70;;;10.40;99.90;;;;;;5037039;28;20194;-88
2022/02/20 12:45:16;;;;;;;11.07;7.50;;;10.30;99.90;;;;;;5045381;28;20221;-89
2022/02/20 12:51:04;;;;;;;12.57;6.40;;;10.30;99.90;;;;;;5050961;23;20158;-66
2022/02/20 12:53:30;;;;;;;9.63;6.67;;;10.30;99.90;;;;;;4990291;28;20303;-67
2022/02/20 12:55:56;;;;;;;8.43;7.60;;;10.30;99.90;;;;;;4991819;28;20285;-67